createdAt,value
2023-03-17T00:02:13.933Z,51.80
2023-03-17T00:05:25.654Z,51.83
2023-03-17T00:08:36.157Z,52.66
2023-03-17T00:11:41.540Z,52.41
2023-03-17T00:14:47.823Z,52.17
2023-03-17T00:17:59.859Z,52.40
2023-03-17T00:21:06.272Z,52.49
2023-03-17T00:24:16.141Z,52.51
2023-03-17T00:27:22.601Z,52.53
2023-03-17T00:30:31.008Z,52.78
2023-03-17T00:33:40.757Z,52.49
2023-03-17T00:36:52.000Z,52.99
2023-03-17T00:39:58.206Z,52.65
2023-03-17T00:43:04.341Z,52.88
2023-03-17T00:46:17.778Z,53.63
2023-03-17T00:49:28.637Z,53.56
2023-03-17T00:52:34.942Z,53.73
2023-03-17T00:55:41.632Z,53.50
2023-03-17T00:58:51.788Z,53.42
2023-03-17T01:01:58.119Z,53.19
2023-03-17T01:05:07.928Z,53.80
2023-03-17T01:08:13.452Z,53.90
2023-03-17T01:11:24.158Z,53.79
2023-03-17T01:14:29.590Z,53.86
2023-03-17T01:17:35.999Z,53.91
2023-03-17T01:20:45.012Z,54.24
2023-03-17T01:23:51.538Z,53.64
2023-03-17T01:26:56.870Z,54.08
2023-03-17T01:30:03.052Z,53.70
2023-03-17T01:33:11.510Z,54.24
2023-03-17T01:36:20.831Z,54.11
2023-03-17T01:39:27.717Z,54.42
2023-03-17T01:42:34.251Z,54.63
2023-03-17T01:46:25.534Z,54.43
2023-03-17T01:49:38.370Z,55.14
2023-03-17T01:52:48.197Z,54.72
2023-03-17T01:55:56.994Z,54.33
2023-03-17T01:59:10.836Z,55.51
2023-03-17T02:02:25.872Z,54.51
2023-03-17T02:05:34.325Z,54.50
2023-03-17T02:08:44.541Z,55.03
2023-03-17T02:11:50.875Z,54.55
2023-03-17T02:14:57.530Z,54.97
2023-03-17T02:18:03.913Z,55.20
2023-03-17T02:21:41.128Z,54.70
2023-03-17T02:24:54.888Z,54.93
2023-03-17T02:28:10.764Z,54.85
2023-03-17T02:31:16.729Z,55.81
2023-03-17T02:34:23.583Z,55.24
2023-03-17T02:37:31.769Z,54.93
2023-03-17T02:40:39.167Z,55.63
2023-03-17T02:43:44.608Z,55.73
2023-03-17T02:46:51.264Z,54.82
2023-03-17T02:49:58.398Z,54.72
2023-03-17T02:53:08.391Z,55.01
2023-03-17T02:56:14.791Z,55.09
2023-03-17T02:59:21.071Z,55.79
2023-03-17T03:02:26.480Z,55.47
2023-03-17T03:05:32.694Z,55.78
2023-03-17T03:08:40.867Z,55.87
2023-03-17T03:11:48.244Z,54.87
2023-03-17T03:14:53.884Z,55.07
2023-03-17T03:18:00.403Z,55.03
2023-03-17T03:21:06.659Z,54.80
2023-03-17T03:24:16.270Z,55.04
2023-03-17T03:27:21.821Z,55.20
2023-03-17T03:30:28.536Z,55.24
2023-03-17T03:33:34.387Z,55.12
2023-03-17T03:36:40.715Z,54.42
2023-03-17T03:39:49.034Z,55.17
2023-03-17T03:42:55.553Z,54.47
2023-03-17T03:46:01.102Z,54.59
2023-03-17T03:49:07.657Z,54.35
2023-03-17T03:52:13.223Z,54.42
2023-03-17T03:55:22.706Z,55.43
2023-03-17T03:58:28.088Z,54.25
2023-03-17T04:01:34.554Z,54.95
2023-03-17T04:04:40.003Z,54.58
2023-03-17T04:07:47.987Z,54.41
2023-03-17T04:10:56.130Z,55.39
2023-03-17T04:14:02.824Z,55.54
2023-03-17T04:17:09.211Z,54.70
2023-03-17T04:20:18.508Z,54.46
2023-03-17T04:23:24.037Z,55.56
2023-03-17T04:26:33.110Z,54.67
2023-03-17T04:29:38.667Z,54.82
2023-03-17T04:32:45.126Z,55.62
2023-03-17T04:35:50.905Z,54.87
2023-03-17T04:38:57.292Z,55.36
2023-03-17T04:42:05.463Z,55.80
2023-03-17T04:45:17.030Z,55.13
2023-03-17T04:48:22.702Z,54.72
2023-03-17T04:51:29.166Z,55.35
2023-03-17T04:54:34.566Z,55.52
2023-03-17T04:57:43.865Z,54.88
2023-03-17T05:00:49.308Z,54.81
2023-03-17T05:03:55.552Z,55.69
2023-03-17T05:07:01.430Z,55.70
2023-03-17T05:10:08.684Z,55.71
2023-03-17T05:13:16.789Z,55.20
2023-03-17T05:16:23.180Z,54.65
2023-03-17T05:19:28.667Z,55.70
2023-03-17T05:22:34.885Z,55.33
2023-03-17T05:25:40.704Z,54.99
2023-03-17T05:28:49.875Z,54.76
2023-03-17T05:31:55.289Z,54.44
2023-03-17T05:35:01.655Z,54.71
2023-03-17T05:38:07.544Z,54.13
2023-03-17T05:41:14.257Z,53.84
2023-03-17T05:44:23.367Z,54.46
2023-03-17T05:47:30.640Z,54.47
2023-03-17T05:50:36.689Z,54.28
2023-03-17T05:53:43.580Z,54.28
2023-03-17T05:56:49.060Z,54.27
2023-03-17T05:59:58.178Z,54.32
2023-03-17T06:03:04.093Z,53.64
2023-03-17T06:06:10.759Z,53.98
2023-03-17T06:09:16.349Z,53.90
2023-03-17T06:12:22.656Z,52.99
2023-03-17T06:15:31.019Z,52.87
2023-03-17T06:18:37.535Z,53.26
2023-03-17T06:21:42.996Z,52.73
2023-03-17T06:24:49.602Z,52.60
2023-03-17T06:27:56.419Z,52.15
2023-03-17T06:31:07.312Z,52.28
2023-03-17T06:34:12.950Z,52.54
2023-03-17T06:37:19.537Z,51.71
2023-03-17T06:40:24.977Z,52.16
2023-03-17T06:43:32.140Z,52.04
2023-03-17T06:46:40.382Z,51.75
2023-03-17T06:49:47.017Z,51.20
2023-03-17T06:52:52.545Z,51.12
2023-03-17T06:55:59.373Z,51.12
2023-03-17T06:59:05.155Z,50.94
2023-03-17T07:02:15.684Z,50.80
2023-03-17T07:05:21.599Z,50.05
2023-03-17T07:08:30.913Z,50.30
2023-03-17T07:11:36.715Z,49.69
2023-03-17T07:14:43.058Z,49.14
2023-03-17T07:17:51.305Z,48.53
2023-03-17T07:20:57.622Z,48.03
2023-03-17T07:24:04.668Z,48.48
2023-03-17T07:27:11.344Z,47.83
2023-03-17T07:30:19.387Z,47.13
2023-03-17T07:33:28.763Z,47.05
2023-03-17T07:36:34.384Z,46.39
2023-03-17T07:39:41.394Z,46.36
2023-03-17T07:42:46.934Z,45.75
2023-03-17T07:45:53.381Z,44.58
2023-03-17T07:49:01.908Z,44.72
2023-03-17T07:52:09.145Z,45.14
2023-03-17T07:55:14.750Z,43.51
2023-03-17T07:58:21.894Z,44.14
2023-03-17T08:01:27.967Z,43.46
2023-03-17T08:04:37.781Z,43.06
2023-03-17T08:07:43.615Z,42.70
2023-03-17T08:10:49.946Z,42.70
2023-03-17T08:13:55.390Z,41.37
2023-03-17T08:17:01.699Z,40.38
2023-03-17T08:20:11.828Z,41.89
2023-03-17T08:23:19.007Z,40.10
2023-03-17T08:26:24.825Z,40.38
2023-03-17T08:29:31.465Z,39.68
2023-03-17T08:32:37.307Z,39.94
2023-03-17T08:35:47.189Z,39.34
2023-03-17T08:38:53.507Z,39.19
2023-03-17T08:42:00.229Z,38.72
2023-03-17T08:45:06.912Z,38.74
2023-03-17T08:48:13.662Z,38.02
2023-03-17T08:51:24.786Z,37.59
2023-03-17T08:54:31.068Z,37.81
2023-03-17T08:57:36.635Z,38.14
2023-03-17T09:00:43.083Z,38.34
2023-03-17T09:03:48.824Z,38.33
2023-03-17T09:07:03.820Z,37.44
2023-03-17T09:10:13.845Z,36.36
2023-03-17T09:13:20.154Z,37.08
2023-03-17T09:16:27.256Z,36.79
2023-03-17T09:19:33.730Z,37.35
2023-03-17T09:22:42.656Z,37.33
2023-03-17T09:25:48.927Z,36.64
2023-03-17T09:28:54.689Z,35.65
2023-03-17T09:32:00.941Z,36.21
2023-03-17T09:35:07.194Z,35.79
2023-03-17T09:38:16.281Z,35.37
2023-03-17T09:42:04.823Z,35.66
2023-03-17T09:45:34.698Z,35.03
2023-03-17T09:49:01.082Z,34.75
2023-03-17T09:52:08.621Z,33.76
2023-03-17T09:55:31.492Z,33.73
2023-03-17T09:58:42.292Z,33.22
2023-03-17T10:01:48.284Z,33.53
2023-03-17T10:04:54.989Z,33.26
2023-03-17T10:08:29.917Z,33.21
2023-03-17T10:11:46.426Z,32.99
2023-03-17T10:15:04.584Z,32.80
2023-03-17T10:18:18.728Z,31.90
2023-03-17T10:21:32.440Z,32.90
2023-03-17T10:24:54.868Z,32.26
2023-03-17T10:28:11.662Z,32.08
2023-03-17T10:31:23.058Z,32.56
2023-03-17T10:34:32.998Z,32.11
2023-03-17T10:37:39.385Z,31.86
2023-03-17T10:40:51.433Z,31.84
2023-03-17T10:44:01.884Z,31.97
2023-03-17T10:47:07.331Z,31.82
2023-03-17T10:50:29.216Z,31.99
2023-03-17T10:53:44.014Z,31.93
2023-03-17T10:56:54.852Z,31.13
2023-03-17T11:00:05.617Z,30.56
2023-03-17T11:03:21.603Z,30.41
2023-03-17T11:06:42.275Z,30.46
2023-03-17T11:09:53.907Z,29.34
2023-03-17T11:13:04.747Z,29.56
2023-03-17T11:16:27.490Z,30.47
2023-03-17T11:19:52.170Z,29.31
2023-03-17T11:23:10.867Z,29.13
2023-03-17T11:26:42.356Z,28.96
2023-03-17T11:30:17.737Z,29.39
2023-03-17T11:33:42.373Z,28.97
2023-03-17T11:37:02.595Z,30.31
2023-03-17T11:40:26.717Z,30.15
2023-03-17T11:43:46.979Z,29.39
2023-03-17T11:47:06.918Z,29.28
2023-03-17T11:50:32.195Z,30.31
2023-03-17T11:54:13.563Z,29.59
2023-03-17T11:57:30.367Z,30.17
2023-03-17T12:00:43.860Z,30.38
2023-03-17T12:04:03.365Z,29.11
2023-03-17T12:07:27.954Z,30.34
2023-03-17T12:10:44.101Z,29.88
2023-03-17T12:13:57.863Z,29.89
2023-03-17T12:17:19.229Z,29.74
2023-03-17T12:20:36.878Z,29.43
2023-03-17T12:23:52.581Z,30.12
2023-03-17T12:27:06.197Z,29.55
2023-03-17T12:30:30.787Z,30.67
2023-03-17T12:33:52.090Z,29.73
2023-03-17T12:36:59.525Z,30.30
2023-03-17T12:40:18.944Z,29.37
2023-03-17T12:43:43.163Z,29.76
2023-03-17T12:47:24.137Z,30.43
2023-03-17T12:51:06.756Z,30.44
2023-03-17T12:54:23.241Z,30.00
2023-03-17T12:57:43.993Z,30.23
2023-03-17T13:00:59.599Z,30.31
2023-03-17T13:04:22.275Z,29.94
2023-03-17T13:07:36.148Z,29.53
2023-03-17T13:10:48.319Z,29.34
2023-03-17T13:14:19.040Z,29.17
2023-03-17T13:17:37.712Z,29.41
2023-03-17T13:20:48.190Z,30.64
2023-03-17T13:24:40.059Z,29.80
2023-03-17T13:27:50.263Z,29.39
2023-03-17T13:31:16.875Z,29.34
2023-03-17T13:34:23.953Z,29.74
2023-03-17T13:37:37.868Z,30.08
2023-03-17T13:41:05.968Z,29.80
2023-03-17T13:44:48.402Z,29.84
2023-03-17T13:48:17.018Z,29.04
2023-03-17T13:51:28.814Z,29.54
2023-03-17T13:54:38.205Z,29.23
2023-03-17T13:57:44.580Z,28.75
2023-03-17T14:00:58.998Z,29.12
2023-03-17T14:04:20.575Z,28.51
2023-03-17T14:07:32.727Z,28.74
2023-03-17T14:10:39.071Z,28.85
2023-03-17T14:13:56.854Z,29.13
2023-03-17T14:17:16.699Z,28.18
2023-03-17T14:20:30.864Z,28.66
2023-03-17T14:23:37.700Z,28.34
2023-03-17T14:26:43.192Z,29.04
2023-03-17T14:29:50.502Z,29.25
2023-03-17T14:33:07.453Z,28.48
2023-03-17T14:36:17.159Z,28.97
2023-03-17T14:39:28.985Z,28.74
2023-03-17T14:42:35.996Z,28.79
2023-03-17T14:45:53.203Z,28.50
2023-03-17T14:49:04.966Z,28.84
2023-03-17T14:52:24.212Z,28.35
2023-03-17T14:55:43.393Z,28.37
2023-03-17T14:58:54.601Z,28.50
2023-03-17T15:02:04.211Z,28.46
2023-03-17T15:05:29.374Z,28.30
2023-03-17T15:08:49.275Z,28.82
2023-03-17T15:11:59.924Z,28.24
2023-03-17T15:15:18.127Z,28.95
2023-03-17T15:18:25.640Z,28.82
2023-03-17T15:21:41.014Z,28.64
2023-03-17T15:25:01.210Z,28.90
2023-03-17T15:28:15.660Z,28.38
2023-03-17T15:31:23.823Z,28.72
2023-03-17T15:34:30.694Z,28.12
2023-03-17T15:37:38.183Z,28.67
2023-03-17T15:40:47.343Z,28.81
2023-03-17T15:43:53.858Z,28.63
2023-03-17T15:47:00.155Z,28.36
2023-03-17T15:50:19.435Z,27.88
2023-03-17T15:53:26.269Z,28.82
2023-03-17T15:56:34.694Z,28.73
2023-03-17T15:59:41.083Z,28.37
2023-03-17T16:02:48.023Z,28.71
2023-03-17T16:05:54.461Z,29.05
2023-03-17T16:08:59.978Z,28.97
2023-03-17T16:12:12.286Z,28.60
2023-03-17T16:15:23.525Z,28.26
2023-03-17T16:18:37.998Z,28.54
2023-03-17T16:21:43.590Z,28.45
2023-03-17T16:24:50.249Z,29.17
2023-03-17T16:28:01.864Z,28.44
2023-03-17T16:31:22.639Z,29.06
2023-03-17T16:34:29.290Z,28.47
2023-03-17T16:37:35.575Z,29.46
2023-03-17T16:40:42.836Z,29.56
2023-03-17T16:43:56.086Z,29.09
2023-03-17T16:47:01.530Z,29.20
2023-03-17T16:50:17.754Z,29.09
2023-03-17T16:53:23.478Z,29.82
2023-03-17T16:56:31.752Z,30.00
2023-03-17T16:59:40.081Z,30.14
2023-03-17T17:02:49.621Z,29.93
2023-03-17T17:05:55.258Z,31.44
2023-03-17T17:09:01.538Z,30.86
2023-03-17T17:12:07.801Z,32.00
2023-03-17T17:15:19.788Z,32.40
2023-03-17T17:18:26.752Z,32.35
2023-03-17T17:21:34.100Z,32.75
2023-03-17T17:24:39.635Z,32.61
2023-03-17T17:27:48.772Z,32.74
2023-03-17T17:30:58.738Z,32.74
2023-03-17T17:34:05.063Z,33.36
2023-03-17T17:37:12.961Z,33.50
2023-03-17T17:40:24.693Z,33.39
2023-03-17T17:43:30.220Z,33.88
2023-03-17T17:46:39.499Z,33.75
2023-03-17T17:49:44.989Z,33.59
2023-03-17T17:52:51.297Z,34.14
2023-03-17T17:55:58.049Z,33.70
2023-03-17T17:59:04.682Z,33.79
2023-03-17T18:02:14.257Z,34.52
2023-03-17T18:05:20.898Z,34.23
2023-03-17T18:08:27.721Z,34.41
2023-03-17T18:11:34.347Z,34.46
2023-03-17T18:14:40.448Z,34.67
2023-03-17T18:17:49.541Z,34.33
2023-03-17T18:20:55.907Z,34.55
2023-03-17T18:24:02.841Z,34.49
2023-03-17T18:27:08.968Z,34.15
2023-03-17T18:30:23.989Z,34.29
2023-03-17T18:33:32.607Z,34.23
2023-03-17T18:36:39.304Z,33.86
2023-03-17T18:39:55.508Z,34.04
2023-03-17T18:43:12.141Z,34.40
2023-03-17T18:46:17.670Z,34.35
2023-03-17T18:49:28.391Z,34.31
2023-03-17T18:52:35.278Z,34.34
2023-03-17T18:55:41.657Z,34.34
2023-03-17T18:58:47.420Z,34.43
2023-03-17T19:01:53.853Z,34.60
2023-03-17T19:05:02.679Z,34.92
2023-03-17T19:08:09.602Z,34.99
2023-03-17T19:11:21.987Z,34.99
2023-03-17T19:14:28.300Z,35.40
2023-03-17T19:17:33.937Z,34.82
2023-03-17T19:20:43.235Z,35.58
2023-03-17T19:23:48.876Z,35.76
2023-03-17T19:26:55.404Z,35.78
2023-03-17T19:30:00.898Z,36.07
2023-03-17T19:33:08.272Z,36.03
2023-03-17T19:36:16.920Z,35.99
2023-03-17T19:39:24.679Z,36.13
2023-03-17T19:42:30.279Z,36.21
2023-03-17T19:45:37.217Z,36.71
2023-03-17T19:48:43.373Z,36.97
2023-03-17T19:51:53.437Z,36.43
2023-03-17T19:54:58.915Z,37.19
2023-03-17T19:58:06.794Z,37.48
2023-03-17T20:01:13.149Z,37.62
2023-03-17T20:04:22.212Z,37.74
2023-03-17T20:07:32.897Z,38.00
2023-03-17T20:10:39.480Z,38.36
2023-03-17T20:13:44.958Z,38.23
2023-03-17T20:16:52.195Z,38.36
2023-03-17T20:19:58.338Z,37.41
2023-03-17T20:23:08.082Z,37.86
2023-03-17T20:26:14.435Z,38.03
2023-03-17T20:29:20.955Z,37.87
2023-03-17T20:32:27.857Z,38.68
2023-03-17T20:35:35.035Z,38.53
2023-03-17T20:38:44.001Z,38.45
2023-03-17T20:41:51.907Z,38.19
2023-03-17T20:44:57.597Z,39.17
2023-03-17T20:48:05.463Z,39.03
2023-03-17T20:51:15.789Z,39.25
2023-03-17T20:54:25.315Z,38.86
2023-03-17T20:57:30.849Z,38.81
2023-03-17T21:00:37.280Z,39.12
2023-03-17T21:03:43.502Z,39.92
2023-03-17T21:06:50.552Z,38.55
2023-03-17T21:10:00.843Z,39.57
2023-03-17T21:13:07.529Z,39.06
2023-03-17T21:16:19.118Z,39.58
2023-03-17T21:19:25.574Z,39.88
2023-03-17T21:22:32.699Z,40.31
2023-03-17T21:25:41.999Z,40.16
2023-03-17T21:28:49.230Z,40.50
2023-03-17T21:31:56.965Z,40.76
2023-03-17T21:35:02.449Z,39.91
2023-03-17T21:38:09.126Z,40.07
2023-03-17T21:41:34.895Z,40.34
2023-03-17T21:44:42.321Z,40.70
2023-03-17T21:47:47.880Z,40.06
2023-03-17T21:50:54.551Z,39.89
2023-03-17T21:54:00.811Z,40.47
2023-03-17T21:57:12.027Z,41.05
2023-03-17T22:00:18.767Z,40.63
2023-03-17T22:03:25.223Z,40.39
2023-03-17T22:06:30.794Z,41.27
2023-03-17T22:09:37.869Z,41.20
2023-03-17T22:12:46.070Z,40.54
2023-03-17T22:15:52.728Z,40.76
2023-03-17T22:18:58.634Z,41.79
2023-03-17T22:22:05.286Z,41.06
2023-03-17T22:25:11.735Z,41.34
2023-03-17T22:28:21.781Z,41.24
2023-03-17T22:31:30.971Z,41.59
2023-03-17T22:34:37.600Z,40.98
2023-03-17T22:37:44.188Z,41.33
2023-03-17T22:40:50.384Z,41.83
2023-03-17T22:43:58.700Z,41.34
2023-03-17T22:47:05.162Z,41.84
2023-03-17T22:50:13.142Z,41.20
2023-03-17T22:53:19.752Z,40.84
2023-03-17T22:56:26.353Z,42.02
2023-03-17T22:59:35.679Z,41.52
2023-03-17T23:02:41.375Z,41.65
2023-03-17T23:05:49.997Z,41.37
2023-03-17T23:08:56.230Z,41.63
2023-03-17T23:12:02.893Z,41.49
2023-03-17T23:15:13.630Z,41.86
2023-03-17T23:18:21.112Z,42.06
2023-03-17T23:21:34.065Z,42.62
2023-03-17T23:24:40.362Z,42.36
2023-03-17T23:27:46.062Z,41.52
2023-03-17T23:30:55.856Z,42.31
2023-03-17T23:34:01.618Z,42.18
2023-03-17T23:37:08.253Z,41.50
2023-03-17T23:40:17.434Z,42.70
2023-03-17T23:43:23.853Z,42.49
2023-03-17T23:46:32.043Z,42.30
2023-03-17T23:49:38.518Z,43.07
2023-03-17T23:52:45.153Z,41.72
2023-03-17T23:55:52.958Z,42.69
2023-03-17T23:58:58.393Z,42.64
